Time;durP1;ratioP1;P1;durP2;ratioP2;P2;SDS_P1;SDS_P2;PMS_P1;PMS_P2;Temp;Humidity;BMP_temperature;BMP_pressure;BME280_temperature;BME280_humidity;BME280_pressure;Samples;Min_cycle;Max_cycle;Signal;HPM_P1;HPM_P2
2022/05/04 00:00:52;;;;;;;14.13;10.73;;;21.60;98.60;;;;;;4205674;28;20060;-68
2022/05/04 00:02:56;;;;;;;12.80;9.30;;;21.50;98.90;;;;;;4179714;28;20046;-68
2022/05/04 00:05:03;;;;;;;15.75;10.07;;;21.50;99.10;;;;;;4202656;28;20040;-68
2022/05/04 00:07:09;;;;;;;16.60;9.13;;;21.60;99.20;;;;;;4201674;28;20090;-68
2022/05/04 00:09:13;;;;;;;12.07;9.82;;;21.40;99.70;;;;;;4200432;28;20041;-68
2022/05/04 00:11:23;;;;;;;10.98;9.07;;;21.50;99.90;;;;;;4189532;28;20041;-68
2022/05/04 00:13:29;;;;;;;11.82;9.30;;;21.30;99.90;;;;;;4188860;28;20037;-69
2022/05/04 00:15:43;;;;;;;12.50;9.55;;;21.40;99.90;;;;;;4207387;28;20040;-69
2022/05/04 00:17:48;;;;;;;13.43;10.35;;;21.60;99.90;;;;;;4200459;28;20045;-69
2022/05/04 00:19:54;;;;;;;12.20;10.10;;;21.60;99.90;;;;;;4187340;28;20045;-69
2022/05/04 00:22:05;;;;;;;14.25;10.45;;;21.60;99.90;;;;;;4201820;28;20041;-69
2022/05/04 00:24:19;;;;;;;14.57;10.57;;;21.60;99.90;;;;;;4187238;28;20452;-70
2022/05/04 00:26:25;;;;;;;15.85;10.13;;;21.60;99.90;;;;;;4208759;28;20067;-69
2022/05/04 00:28:33;;;;;;;12.98;10.18;;;21.60;99.90;;;;;;4194637;28;20041;-68
2022/05/04 00:30:40;;;;;;;12.27;9.85;;;21.70;99.90;;;;;;4190899;28;20044;-68
2022/05/04 00:32:51;;;;;;;13.88;9.98;;;21.80;99.90;;;;;;4208835;28;20044;-68
2022/05/04 00:35:04;;;;;;;12.13;9.30;;;21.80;99.90;;;;;;4200895;28;20044;-69
2022/05/04 00:37:13;;;;;;;12.63;10.05;;;21.80;99.90;;;;;;4204308;28;20048;-69
2022/05/04 00:39:18;;;;;;;15.05;10.90;;;21.90;99.90;;;;;;4204857;28;20045;-66
2022/05/04 00:41:22;;;;;;;14.48;10.43;;;22.00;99.60;;;;;;4205087;28;20036;-67
2022/05/04 00:43:31;;;;;;;17.98;9.55;;;22.00;99.60;;;;;;4186087;28;20072;-68
2022/05/04 00:45:36;;;;;;;15.20;10.20;;;21.90;99.90;;;;;;4202263;28;20041;-68
2022/05/04 00:47:42;;;;;;;18.48;11.55;;;22.00;99.90;;;;;;4202204;28;20040;-66
2022/05/04 00:49:49;;;;;;;12.60;10.02;;;22.00;99.80;;;;;;4200130;28;20044;-67
2022/05/04 00:51:54;;;;;;;14.48;10.32;;;22.00;99.30;;;;;;4204232;28;20041;-66
2022/05/04 00:54:12;;;;;;;15.48;11.05;;;22.10;99.40;;;;;;4201177;28;20428;-67
2022/05/04 00:56:33;;;;;;;16.55;11.00;;;22.20;99.40;;;;;;4179656;28;20044;-67
2022/05/04 01:00:56;;;;;;;17.42;10.30;;;22.40;98.60;;;;;;4199867;28;20121;-66
2022/05/04 01:03:00;;;;;;;14.70;9.82;;;22.50;98.20;;;;;;4198858;28;20037;-67
2022/05/04 01:05:09;;;;;;;14.13;9.32;;;22.40;97.70;;;;;;4192092;28;20094;-66
2022/05/04 01:07:14;;;;;;;13.32;9.75;;;22.40;97.50;;;;;;4201404;28;20043;-66
2022/05/04 01:09:23;;;;;;;17.85;9.35;;;22.50;97.30;;;;;;4202333;28;20037;-66
2022/05/04 01:11:28;;;;;;;11.98;9.07;;;22.50;97.40;;;;;;4202152;28;20044;-67
2022/05/04 01:13:32;;;;;;;11.15;9.15;;;22.60;97.20;;;;;;4186457;28;20105;-67
2022/05/04 01:15:39;;;;;;;12.18;8.90;;;22.50;96.70;;;;;;4193518;28;20047;-67
2022/05/04 01:17:44;;;;;;;12.48;9.00;;;22.50;97.10;;;;;;4178145;28;20057;-67
2022/05/04 01:19:48;;;;;;;15.65;9.43;;;22.40;97.50;;;;;;4186136;28;20076;-66
2022/05/04 01:21:58;;;;;;;11.80;8.00;;;22.50;97.40;;;;;;4172257;28;20103;-67
2022/05/04 01:24:03;;;;;;;12.30;8.35;;;22.50;97.00;;;;;;4165334;28;20096;-66
2022/05/04 01:26:08;;;;;;;10.95;8.05;;;22.60;96.80;;;;;;4194576;28;20068;-67
2022/05/04 01:28:16;;;;;;;10.05;8.20;;;22.70;96.80;;;;;;4192079;28;20040;-66
2022/05/04 01:30:21;;;;;;;11.18;8.88;;;22.70;96.60;;;;;;4200920;28;20051;-65
2022/05/04 01:32:27;;;;;;;13.48;8.40;;;22.70;96.70;;;;;;4189167;28;20474;-67
2022/05/04 01:34:34;;;;;;;15.70;8.65;;;22.80;96.90;;;;;;4188519;28;20076;-64
2022/05/04 01:36:39;;;;;;;10.35;8.13;;;22.70;96.90;;;;;;4194664;28;20040;-68
2022/05/04 01:38:47;;;;;;;11.80;8.18;;;22.60;97.20;;;;;;4194620;28;20186;-66
2022/05/04 01:40:55;;;;;;;11.38;8.38;;;22.70;97.20;;;;;;4197950;28;20044;-67
2022/05/04 01:42:59;;;;;;;11.55;8.02;;;22.80;97.30;;;;;;4189294;28;20049;-67
2022/05/04 01:45:05;;;;;;;10.05;7.55;;;22.80;97.10;;;;;;4192860;28;20041;-66
2022/05/04 01:47:14;;;;;;;12.77;7.82;;;22.90;97.00;;;;;;4192016;28;20060;-67
2022/05/04 01:49:18;;;;;;;14.80;8.48;;;22.90;97.00;;;;;;4190402;28;20045;-66
2022/05/04 01:51:23;;;;;;;13.85;8.07;;;22.90;96.80;;;;;;4193623;28;20051;-67
2022/05/04 01:53:30;;;;;;;12.25;7.93;;;22.90;96.80;;;;;;4189318;28;20483;-67
2022/05/04 01:55:36;;;;;;;9.80;7.85;;;22.90;96.90;;;;;;4190598;28;20041;-66
2022/05/04 01:57:40;;;;;;;10.95;8.25;;;23.00;96.70;;;;;;4194096;28;20555;-66
2022/05/04 01:59:48;;;;;;;11.40;7.90;;;23.00;96.70;;;;;;4192088;28;20111;-67
2022/05/04 02:01:53;;;;;;;10.82;8.30;;;23.00;96.80;;;;;;4187445;28;20131;-66
2022/05/04 02:03:58;;;;;;;11.65;7.95;;;23.10;96.50;;;;;;4191655;28;20043;-67
2022/05/04 02:06:05;;;;;;;10.05;8.13;;;23.20;96.70;;;;;;4186249;28;20041;-67
2022/05/04 02:08:10;;;;;;;9.52;7.45;;;23.20;96.90;;;;;;4193923;28;20032;-66
2022/05/04 02:10:15;;;;;;;9.32;7.80;;;23.20;96.70;;;;;;4197571;28;20051;-67
2022/05/04 02:12:23;;;;;;;9.85;7.53;;;23.20;96.50;;;;;;4195635;28;20037;-65
2022/05/04 02:14:28;;;;;;;9.73;7.35;;;23.30;96.20;;;;;;4179648;28;20780;-66
2022/05/04 02:16:33;;;;;;;10.32;7.55;;;23.40;96.20;;;;;;4188048;28;20048;-68
2022/05/04 02:18:42;;;;;;;9.00;7.07;;;23.50;96.40;;;;;;4193406;28;20495;-67
2022/05/04 02:20:46;;;;;;;9.38;7.75;;;23.50;96.40;;;;;;4192613;28;20091;-67
2022/05/04 02:22:52;;;;;;;11.25;7.93;;;23.50;96.50;;;;;;4177523;28;20171;-66
2022/05/04 02:24:58;;;;;;;9.60;7.50;;;23.60;96.50;;;;;;4190731;28;20040;-66
2022/05/04 02:27:03;;;;;;;11.38;7.78;;;23.60;96.40;;;;;;4201596;28;20041;-66
2022/05/04 02:29:08;;;;;;;10.40;7.47;;;23.70;96.20;;;;;;4200483;28;20055;-67
2022/05/04 02:31:12;;;;;;;12.18;7.70;;;23.90;96.10;;;;;;4199157;28;20047;-68
2022/05/04 02:33:17;;;;;;;9.40;7.10;;;23.90;95.80;;;;;;4200061;28;20040;-67
2022/05/04 02:37:57;;;;;;;9.15;7.57;;;24.00;95.30;;;;;;4202384;28;20040;-66
2022/05/04 02:40:02;;;;;;;11.10;7.93;;;23.90;95.60;;;;;;4182016;28;20146;-66
2022/05/04 02:42:06;;;;;;;14.73;7.85;;;23.80;95.90;;;;;;4202210;28;20499;-67
2022/05/04 02:44:13;;;;;;;11.85;7.65;;;23.90;95.80;;;;;;4202416;28;20044;-67
2022/05/04 02:46:20;;;;;;;13.02;8.07;;;24.00;95.60;;;;;;4203097;28;20067;-68
2022/05/04 02:48:25;;;;;;;10.32;7.20;;;24.10;95.60;;;;;;4200523;28;20048;-67
2022/05/04 02:50:32;;;;;;;11.18;7.90;;;24.20;95.50;;;;;;4196623;28;20041;-66
2022/05/04 02:52:37;;;;;;;9.77;7.30;;;24.30;95.60;;;;;;4198710;28;20052;-67
2022/05/04 02:54:41;;;;;;;8.52;6.40;;;24.40;95.60;;;;;;4201120;28;20062;-66
2022/05/04 02:56:47;;;;;;;8.48;7.13;;;24.40;95.50;;;;;;4198623;28;20047;-67
2022/05/04 02:58:53;;;;;;;8.68;7.07;;;24.50;95.50;;;;;;4198943;28;20047;-65
2022/05/04 03:03:41;;;;;;;9.80;7.63;;;24.60;95.20;;;;;;4151338;28;20047;-64
2022/05/04 03:05:45;;;;;;;10.00;6.78;;;24.60;94.60;;;;;;4185071;28;20048;-66
2022/05/04 03:07:50;;;;;;;9.65;6.93;;;24.70;94.60;;;;;;4199215;28;20045;-64
2022/05/04 03:09:58;;;;;;;8.32;6.80;;;24.60;94.40;;;;;;4199724;28;20036;-65
2022/05/04 03:12:03;;;;;;;10.30;6.72;;;24.70;94.80;;;;;;4197842;28;20041;-67
2022/05/04 03:14:08;;;;;;;11.27;6.78;;;24.80;94.60;;;;;;4200382;28;20036;-68
2022/05/04 03:16:15;;;;;;;9.75;7.07;;;24.90;94.50;;;;;;4167170;28;20084;-67
2022/05/04 03:18:20;;;;;;;12.07;6.78;;;25.00;94.40;;;;;;4194678;28;20055;-68
2022/05/04 03:20:25;;;;;;;10.02;6.40;;;25.10;94.40;;;;;;4202172;28;20044;-67
2022/05/04 03:22:33;;;;;;;10.68;6.63;;;25.10;94.30;;;;;;4191632;28;20049;-66
2022/05/04 03:24:38;;;;;;;8.23;6.57;;;25.20;94.10;;;;;;4190171;28;20048;-68
2022/05/04 03:26:43;;;;;;;8.00;6.80;;;25.20;94.10;;;;;;4193004;28;20048;-66
2022/05/04 03:28:52;;;;;;;14.30;7.20;;;25.30;93.90;;;;;;4187540;28;20122;-66
2022/05/04 03:30:57;;;;;;;11.90;6.53;;;25.30;94.10;;;;;;4192430;28;20071;-68
2022/05/04 03:33:02;;;;;;;11.45;6.40;;;25.30;94.00;;;;;;4190896;28;20125;-62
2022/05/04 03:35:13;;;;;;;7.72;5.90;;;25.30;93.90;;;;;;4192749;28;20084;-66
2022/05/04 03:37:17;;;;;;;8.15;6.13;;;25.10;93.20;;;;;;4193222;28;20094;-67
2022/05/04 03:39:22;;;;;;;9.73;6.70;;;25.10;93.80;;;;;;4189085;28;20063;-67
2022/05/04 03:41:31;;;;;;;7.10;6.28;;;25.00;93.80;;;;;;4191527;28;20045;-67
2022/05/04 03:43:35;;;;;;;9.32;5.88;;;25.00;93.90;;;;;;4201181;28;20048;-67
2022/05/04 03:45:40;;;;;;;9.10;6.50;;;25.20;93.90;;;;;;4189922;28;20040;-66
2022/05/04 03:47:48;;;;;;;10.90;5.97;;;25.20;93.40;;;;;;4193610;28;20043;-66
2022/05/04 03:49:53;;;;;;;8.32;5.53;;;25.20;93.50;;;;;;4197320;28;20507;-67
2022/05/04 03:51:58;;;;;;;9.32;6.22;;;25.30;93.60;;;;;;4200188;28;20037;-67
2022/05/04 03:54:08;;;;;;;9.68;6.10;;;25.40;93.60;;;;;;4200254;28;20053;-67
2022/05/04 03:56:12;;;;;;;13.18;6.60;;;25.50;93.80;;;;;;4195295;28;20110;-66
2022/05/04 03:58:17;;;;;;;9.00;5.90;;;25.60;93.70;;;;;;4192850;28;20060;-65
2022/05/04 04:00:25;;;;;;;8.32;5.70;;;25.60;93.70;;;;;;4170377;28;20148;-68
2022/05/04 04:02:30;;;;;;;8.20;5.82;;;25.60;93.60;;;;;;4185308;28;20075;-66
2022/05/04 04:04:35;;;;;;;7.03;5.28;;;25.60;93.60;;;;;;4193020;28;20036;-67
2022/05/04 04:06:43;;;;;;;8.73;6.03;;;25.60;93.30;;;;;;4189173;28;20049;-67
2022/05/04 04:08:51;;;;;;;11.07;6.07;;;25.70;93.50;;;;;;4196186;28;20033;-67
2022/05/04 04:10:57;;;;;;;8.80;6.32;;;25.70;93.80;;;;;;4194043;28;20090;-68
2022/05/04 04:13:06;;;;;;;8.32;5.93;;;25.90;93.70;;;;;;4202984;28;20458;-67
2022/05/04 04:15:11;;;;;;;8.23;5.28;;;26.00;93.70;;;;;;4194501;28;20068;-67
2022/05/04 04:17:16;;;;;;;7.13;5.60;;;26.00;93.60;;;;;;4198659;28;20107;-67
2022/05/04 04:19:24;;;;;;;7.82;5.30;;;26.10;93.70;;;;;;4169496;28;20053;-67
2022/05/04 04:23:46;;;;;;;8.52;5.30;;;26.10;93.60;;;;;;4203035;28;20065;-67
2022/05/04 04:25:50;;;;;;;9.35;5.78;;;26.20;93.50;;;;;;4203635;28;20440;-66
2022/05/04 04:27:55;;;;;;;8.02;5.85;;;26.20;93.40;;;;;;4205401;28;20040;-66
2022/05/04 04:30:00;;;;;;;8.05;5.28;;;26.20;93.40;;;;;;4202808;28;20046;-66
2022/05/04 04:32:08;;;;;;;9.07;6.10;;;26.20;93.20;;;;;;4205626;28;20044;-67
2022/05/04 04:34:13;;;;;;;10.85;5.78;;;26.20;93.20;;;;;;4184239;28;20498;-66
2022/05/04 04:36:19;;;;;;;7.65;5.55;;;26.20;93.00;;;;;;4197775;28;20411;-65
2022/05/04 04:38:28;;;;;;;9.82;5.75;;;26.30;93.10;;;;;;4155527;28;20117;-66
2022/05/04 04:40:34;;;;;;;6.95;5.60;;;26.30;92.90;;;;;;4204526;28;20079;-67
2022/05/04 04:42:38;;;;;;;8.13;5.47;;;26.40;93.10;;;;;;4203520;28;20511;-66
2022/05/04 04:44:45;;;;;;;9.73;5.53;;;26.40;93.00;;;;;;4205989;28;20057;-68
2022/05/04 04:46:50;;;;;;;9.40;5.70;;;26.50;92.90;;;;;;4205741;28;20064;-66
2022/05/04 04:48:55;;;;;;;11.63;5.65;;;26.60;92.70;;;;;;4204882;28;20045;-66
2022/05/04 04:51:03;;;;;;;11.50;6.00;;;26.60;92.80;;;;;;4190589;28;20045;-68
2022/05/04 04:53:08;;;;;;;8.20;6.68;;;26.60;93.00;;;;;;4188642;28;20060;-67
2022/05/04 04:55:12;;;;;;;10.10;6.75;;;26.60;93.10;;;;;;4198300;28;20872;-67
2022/05/04 04:57:19;;;;;;;9.32;5.50;;;26.70;93.00;;;;;;4200554;28;20131;-65
2022/05/04 04:59:30;;;;;;;7.93;5.60;;;26.90;93.00;;;;;;4186446;28;20462;-67
2022/05/04 05:01:36;;;;;;;8.70;5.60;;;27.00;92.90;;;;;;4198193;28;20045;-66
2022/05/04 05:03:45;;;;;;;6.63;5.20;;;27.10;92.90;;;;;;4193875;28;20505;-67
2022/05/04 05:05:50;;;;;;;9.77;5.55;;;27.30;92.70;;;;;;4204594;28;20103;-67
2022/05/04 05:07:55;;;;;;;7.00;5.65;;;27.30;91.50;;;;;;4205131;28;20036;-65
2022/05/04 05:10:03;;;;;;;6.32;5.03;;;27.20;92.30;;;;;;4170630;28;20045;-67
2022/05/04 05:12:09;;;;;;;10.85;5.50;;;27.20;92.30;;;;;;4198004;28;20580;-65
2022/05/04 05:16:35;;;;;;;8.10;5.30;;;27.20;92.00;;;;;;4205135;28;20071;-66
2022/05/04 05:18:40;;;;;;;7.20;4.90;;;27.20;91.50;;;;;;4196937;28;20044;-66
2022/05/04 05:20:45;;;;;;;8.93;5.50;;;27.30;91.80;;;;;;4200469;28;20046;-67
2022/05/04 05:23:00;;;;;;;9.88;5.20;;;27.30;92.00;;;;;;4196239;28;20049;-68
2022/05/04 05:25:05;;;;;;;11.63;5.20;;;27.40;92.20;;;;;;4181964;28;20056;-66
2022/05/04 05:27:10;;;;;;;9.10;4.80;;;27.50;91.50;;;;;;4197641;28;20135;-68
2022/05/04 05:29:16;;;;;;;9.95;5.82;;;27.30;91.30;;;;;;4201466;28;20051;-67
2022/05/04 05:31:21;;;;;;;6.63;5.50;;;27.30;91.50;;;;;;4201327;28;20036;-68
2022/05/04 05:33:26;;;;;;;6.60;5.28;;;27.50;91.70;;;;;;4199918;28;20075;-68
2022/05/04 05:35:34;;;;;;;7.68;5.75;;;27.60;92.00;;;;;;4194149;28;20053;-68
2022/05/04 05:37:42;;;;;;;8.45;6.05;;;27.60;92.10;;;;;;4193093;28;20110;-68
2022/05/04 05:39:53;;;;;;;7.13;5.60;;;27.80;92.10;;;;;;4196075;28;20052;-67
2022/05/04 05:42:00;;;;;;;6.40;4.72;;;27.90;91.90;;;;;;4192128;28;20057;-67
2022/05/04 05:44:05;;;;;;;6.60;4.57;;;28.00;91.80;;;;;;4193205;28;20493;-68
2022/05/04 05:46:09;;;;;;;7.70;4.70;;;27.90;91.80;;;;;;4193396;28;20046;-66
2022/05/04 05:48:20;;;;;;;6.07;4.72;;;27.90;91.80;;;;;;4192961;28;20044;-69
2022/05/04 05:50:25;;;;;;;7.45;4.78;;;27.90;91.70;;;;;;4192293;28;20098;-68
2022/05/04 05:52:29;;;;;;;6.97;4.78;;;28.00;91.50;;;;;;4194988;28;20205;-68
2022/05/04 05:54:37;;;;;;;8.18;4.20;;;28.20;91.40;;;;;;4191431;28;20071;-66
2022/05/04 05:56:42;;;;;;;9.07;4.70;;;28.20;91.40;;;;;;4193711;28;20447;-68
2022/05/04 05:58:47;;;;;;;5.28;4.57;;;28.20;90.70;;;;;;4175712;28;20048;-66
2022/05/04 06:00:52;;;;;;;6.15;4.43;;;28.20;90.80;;;;;;4193850;28;20048;-68
2022/05/04 06:02:56;;;;;;;6.70;4.55;;;27.90;91.30;;;;;;4195366;28;20082;-68
2022/05/04 06:05:01;;;;;;;7.80;4.60;;;28.00;91.10;;;;;;4191528;28;20052;-68
2022/05/04 06:07:10;;;;;;;7.38;4.50;;;28.10;91.10;;;;;;4176023;28;20072;-67
2022/05/04 06:09:15;;;;;;;5.38;4.55;;;28.30;90.90;;;;;;4193467;28;20044;-68
2022/05/04 06:11:19;;;;;;;6.80;4.20;;;28.40;90.90;;;;;;4195124;28;20044;-66
2022/05/04 06:13:26;;;;;;;6.88;4.72;;;28.50;90.80;;;;;;4198595;28;20036;-69
2022/05/04 06:15:30;;;;;;;7.00;4.55;;;28.40;90.00;;;;;;4197501;28;20452;-66
2022/05/04 06:17:36;;;;;;;7.22;4.60;;;28.30;90.40;;;;;;4202423;28;20408;-68
2022/05/04 06:19:44;;;;;;;6.43;4.47;;;28.00;89.50;;;;;;4201132;28;20112;-67
2022/05/04 06:21:48;;;;;;;8.10;4.45;;;28.00;90.30;;;;;;4194734;28;20044;-68
2022/05/04 06:23:54;;;;;;;5.25;4.18;;;28.10;90.50;;;;;;4196000;28;20033;-67
2022/05/04 06:26:03;;;;;;;8.25;4.05;;;28.20;90.50;;;;;;4193305;28;20059;-67
2022/05/04 06:28:11;;;;;;;5.53;3.67;;;28.30;90.90;;;;;;4193344;28;20068;-68
2022/05/04 06:34:53;;;;;;;6.40;4.00;;;28.50;90.30;;;;;;4192754;28;20052;-68
2022/05/04 06:36:58;;;;;;;5.03;4.00;;;28.30;90.50;;;;;;4194295;28;20049;-67
2022/05/04 06:39:08;;;;;;;7.70;4.15;;;28.40;90.40;;;;;;4196511;28;20080;-67
2022/05/04 06:41:13;;;;;;;7.70;4.93;;;28.50;90.40;;;;;;4201142;28;20050;-68
2022/05/04 06:43:17;;;;;;;7.38;4.50;;;28.60;90.40;;;;;;4198112;28;20076;-67
2022/05/04 06:45:26;;;;;;;5.80;3.90;;;28.70;90.40;;;;;;4191544;28;20429;-68
2022/05/04 06:47:31;;;;;;;6.30;4.25;;;28.70;90.10;;;;;;4197795;28;20431;-68
2022/05/04 06:49:36;;;;;;;3.85;3.35;;;28.80;90.00;;;;;;4194638;28;20068;-68
2022/05/04 06:51:45;;;;;;;6.47;3.85;;;28.80;89.90;;;;;;4191214;28;20117;-66
2022/05/04 06:53:50;;;;;;;8.25;3.60;;;28.90;89.60;;;;;;4194559;28;20041;-69
2022/05/04 06:56:15;;;;;;;7.30;3.70;;;29.10;89.70;;;;;;4189039;28;20254;-68
2022/05/04 06:58:24;;;;;;;7.57;3.85;;;29.00;89.40;;;;;;4193044;28;20049;-66
2022/05/04 07:00:29;;;;;;;4.88;3.83;;;28.90;89.50;;;;;;4183822;28;20056;-68
2022/05/04 07:02:35;;;;;;;5.38;3.92;;;29.10;89.90;;;;;;4176723;28;20053;-69
2022/05/04 07:04:43;;;;;;;6.75;3.63;;;29.10;89.80;;;;;;4193852;28;20515;-67
2022/05/04 07:06:48;;;;;;;3.90;3.17;;;29.20;89.70;;;;;;4195906;28;20041;-67
2022/05/04 07:08:53;;;;;;;6.30;3.70;;;29.10;89.90;;;;;;4191429;28;20041;-68
2022/05/04 07:11:02;;;;;;;6.78;3.88;;;29.00;89.80;;;;;;4195307;28;20049;-70
2022/05/04 07:13:07;;;;;;;5.35;3.50;;;29.00;89.30;;;;;;4192605;28;20048;-67
2022/05/04 07:15:12;;;;;;;5.53;3.30;;;29.00;88.40;;;;;;4197707;28;20397;-68
2022/05/04 07:17:20;;;;;;;5.28;3.30;;;28.80;89.20;;;;;;4196260;28;20059;-68
2022/05/04 07:19:25;;;;;;;7.95;3.38;;;28.90;90.20;;;;;;4194953;28;20040;-67
2022/05/04 07:21:30;;;;;;;7.93;3.90;;;29.00;89.90;;;;;;4195970;28;20049;-68
2022/05/04 07:23:37;;;;;;;6.20;3.72;;;29.10;89.50;;;;;;4191700;28;20112;-68
2022/05/04 07:25:42;;;;;;;6.70;3.72;;;29.20;89.30;;;;;;4194327;28;20053;-68
2022/05/04 07:27:46;;;;;;;6.80;3.65;;;29.20;89.00;;;;;;4190789;28;20124;-68
2022/05/04 07:29:55;;;;;;;5.60;3.47;;;29.30;89.50;;;;;;4188392;28;20121;-66
2022/05/04 07:32:00;;;;;;;6.95;3.70;;;29.10;88.70;;;;;;4193515;28;20048;-68
2022/05/04 07:34:05;;;;;;;7.50;3.88;;;29.00;89.30;;;;;;4191870;28;20491;-68
2022/05/04 07:36:14;;;;;;;7.00;3.63;;;29.10;90.00;;;;;;4190640;28;20051;-68
2022/05/04 07:38:18;;;;;;;4.78;3.10;;;29.20;90.00;;;;;;4196883;28;20040;-68
2022/05/04 07:42:46;;;;;;;4.80;3.50;;;28.90;88.30;;;;;;4191916;28;20556;-64
2022/05/04 07:45:00;;;;;;;5.85;3.70;;;28.90;89.90;;;;;;4195332;28;20049;-68
2022/05/04 07:47:06;;;;;;;7.40;3.97;;;28.90;89.00;;;;;;4191899;28;20079;-67
2022/05/04 07:49:14;;;;;;;7.75;4.15;;;29.00;89.90;;;;;;4190957;28;20100;-68
2022/05/04 07:51:19;;;;;;;5.22;3.40;;;29.00;90.00;;;;;;4181764;28;20045;-69
2022/05/04 07:53:23;;;;;;;5.13;3.30;;;29.10;89.80;;;;;;4188995;28;20044;-69
2022/05/04 07:55:33;;;;;;;5.93;3.55;;;29.10;90.00;;;;;;4196115;28;20041;-69
2022/05/04 07:57:38;;;;;;;6.75;3.80;;;29.10;90.10;;;;;;4192355;28;20037;-68
2022/05/04 07:59:42;;;;;;;4.25;3.60;;;29.10;89.80;;;;;;4190265;28;20057;-69
2022/05/04 08:04:17;;;;;;;7.88;3.53;;;29.10;90.00;;;;;;4191028;28;20044;-68
2022/05/04 08:06:22;;;;;;;5.60;3.28;;;29.10;90.00;;;;;;4193245;28;20099;-68
2022/05/04 08:08:31;;;;;;;5.28;2.63;;;29.10;90.00;;;;;;4194094;28;20040;-67
2022/05/04 08:10:40;;;;;;;4.88;2.72;;;29.10;89.70;;;;;;4194771;28;20064;-69
2022/05/04 08:12:45;;;;;;;6.95;3.28;;;29.00;90.00;;;;;;4188489;28;20104;-67
2022/05/04 08:14:51;;;;;;;5.75;3.33;;;28.80;90.40;;;;;;4189954;28;20048;-68
2022/05/04 08:16:56;;;;;;;6.22;3.10;;;28.80;90.40;;;;;;4186674;28;20139;-68
2022/05/04 08:19:03;;;;;;;6.35;3.20;;;28.80;90.50;;;;;;4187874;28;20047;-68
2022/05/04 08:21:11;;;;;;;5.45;3.05;;;28.80;90.40;;;;;;4175454;28;20057;-67
2022/05/04 08:23:16;;;;;;;4.40;3.00;;;28.70;90.70;;;;;;4195315;28;20467;-66
2022/05/04 08:25:21;;;;;;;7.25;4.20;;;28.70;90.80;;;;;;4196315;28;20033;-68
2022/05/04 08:27:28;;;;;;;8.93;3.90;;;28.80;91.20;;;;;;4193267;28;20041;-67
2022/05/04 08:29:33;;;;;;;7.45;3.70;;;28.80;91.00;;;;;;4186732;28;20087;-69
2022/05/04 08:31:39;;;;;;;4.60;3.40;;;28.90;91.00;;;;;;4179171;28;20052;-68
2022/05/04 08:33:47;;;;;;;4.43;3.30;;;28.90;91.00;;;;;;4179927;28;20038;-68
2022/05/04 08:35:52;;;;;;;5.10;3.50;;;28.90;90.60;;;;;;4178986;28;20045;-68
2022/05/04 08:37:57;;;;;;;4.00;3.30;;;28.90;90.80;;;;;;4173340;28;20037;-68
2022/05/04 08:40:04;;;;;;;6.75;3.20;;;28.90;90.80;;;;;;4178005;28;20160;-69
2022/05/04 08:42:13;;;;;;;6.80;3.45;;;28.90;90.80;;;;;;4175348;28;20042;-66
2022/05/04 08:44:22;;;;;;;4.72;3.50;;;28.90;90.60;;;;;;4183008;28;20083;-68
2022/05/04 08:46:32;;;;;;;5.85;3.45;;;28.80;90.90;;;;;;4176237;28;20565;-63
2022/05/04 08:48:37;;;;;;;4.65;3.90;;;28.80;90.80;;;;;;4178317;28;20398;-68
2022/05/04 08:50:42;;;;;;;7.05;4.35;;;28.80;91.00;;;;;;4185021;28;20059;-68
2022/05/04 08:52:53;;;;;;;5.25;3.90;;;28.80;91.10;;;;;;4185643;28;20098;-68
2022/05/04 08:54:58;;;;;;;6.10;3.60;;;28.90;91.10;;;;;;4186712;28;20048;-67
2022/05/04 08:57:08;;;;;;;5.88;4.20;;;28.90;91.10;;;;;;4185589;28;20052;-68
2022/05/04 08:59:16;;;;;;;9.25;4.43;;;29.00;91.10;;;;;;4185932;28;20055;-68
2022/05/04 09:01:21;;;;;;;6.38;4.18;;;29.00;91.10;;;;;;4182509;28;20508;-67
2022/05/04 09:03:29;;;;;;;6.45;4.00;;;29.00;91.00;;;;;;4166390;28;20056;-66
2022/05/04 09:05:49;;;;;;;5.38;3.65;;;29.00;90.90;;;;;;4185442;28;20048;-68
2022/05/04 09:08:15;;;;;;;5.68;3.97;;;29.00;90.90;;;;;;4186915;28;20048;-68
2022/05/04 09:10:34;;;;;;;10.98;4.35;;;29.00;91.10;;;;;;4196573;28;20082;-70
2022/05/04 09:12:54;;;;;;;69.35;8.70;;;28.90;91.50;;;;;;4186685;28;20075;-69
2022/05/04 09:15:02;;;;;;;34.53;6.57;;;28.90;91.40;;;;;;4184966;28;20104;-72
2022/05/04 09:17:11;;;;;;;17.20;4.18;;;28.90;91.50;;;;;;4187629;28;20048;-71
2022/05/04 09:19:23;;;;;;;8.50;3.75;;;28.90;91.00;;;;;;4187950;28;20037;-70
2022/05/04 09:21:34;;;;;;;7.28;3.75;;;28.80;91.20;;;;;;4187675;28;20045;-70
2022/05/04 09:23:40;;;;;;;5.95;3.38;;;28.80;91.20;;;;;;4186620;28;20355;-70
2022/05/04 09:25:55;;;;;;;5.60;3.30;;;28.80;91.20;;;;;;4184400;28;20064;-69
2022/05/04 09:28:00;;;;;;;3.90;3.10;;;28.80;91.30;;;;;;4198750;28;20036;-69
2022/05/04 09:30:28;;;;;;;6.93;3.80;;;28.80;91.50;;;;;;4199766;28;20072;-70
2022/05/04 09:33:04;;;;;;;;;;;;;;;;;;;;;
2022/05/04 09:35:28;;;;;;;6.63;3.10;;;28.80;91.50;;;;;;4191901;28;20551;-70
2022/05/04 09:46:58;;;;;;;9.45;3.70;;;28.70;91.50;;;;;;4202627;28;20048;-69
2022/05/04 09:49:15;;;;;;;6.15;3.17;;;28.60;91.50;;;;;;4188853;28;20068;-70
2022/05/04 09:51:20;;;;;;;5.43;3.50;;;28.60;91.30;;;;;;4199242;28;20047;-68
2022/05/04 09:53:30;;;;;;;6.32;3.20;;;28.60;91.40;;;;;;4163867;28;20105;-70
2022/05/04 09:55:35;;;;;;;4.75;3.28;;;28.60;91.40;;;;;;4185364;28;20415;-69
2022/05/04 09:57:40;;;;;;;6.63;3.53;;;28.50;91.40;;;;;;4198279;28;20048;-69
2022/05/04 09:59:47;;;;;;;7.05;3.60;;;28.40;91.40;;;;;;4194428;28;20076;-68
2022/05/04 10:01:53;;;;;;;5.10;3.35;;;28.30;91.50;;;;;;4199458;28;20098;-68
2022/05/04 10:04:27;;;;;;;7.03;3.40;;;28.20;91.70;;;;;;4194893;28;20049;-68
2022/05/04 10:06:45;;;;;;;8.40;3.60;;;28.20;91.60;;;;;;4195701;28;20068;-69
2022/05/04 10:08:49;;;;;;;4.65;3.42;;;28.20;91.70;;;;;;4195865;28;20056;-68
2022/05/04 10:10:54;;;;;;;7.40;3.20;;;28.30;91.70;;;;;;4194897;28;20085;-70
2022/05/04 10:13:27;;;;;;;5.15;3.75;;;28.30;91.90;;;;;;4194733;28;20049;-69
2022/05/04 10:15:37;;;;;;;4.53;3.38;;;28.20;91.50;;;;;;4188020;28;20040;-67
2022/05/04 10:18:19;;;;;;;5.75;3.83;;;28.20;91.60;;;;;;4198451;28;20051;-67
2022/05/04 10:20:42;;;;;;;7.63;5.10;;;28.10;91.70;;;;;;4193710;28;20471;-70
2022/05/04 10:23:30;;;;;;;10.10;6.88;;;28.10;91.90;;;;;;4195669;28;20048;-68
2022/05/04 10:25:37;;;;;;;15.23;11.50;;;28.20;91.90;;;;;;4193956;28;20053;-73
2022/05/04 10:27:48;;;;;;;10.23;7.20;;;28.20;92.20;;;;;;4176052;28;20069;-69
2022/05/04 10:30:30;;;;;;;14.93;6.07;;;28.10;92.70;;;;;;4171452;28;20064;-68
2022/05/04 10:32:38;;;;;;;9.60;5.38;;;28.10;93.60;;;;;;4194905;28;20075;-69
2022/05/04 10:35:12;;;;;;;8.20;5.40;;;28.10;93.90;;;;;;4185957;28;20069;-68
2022/05/04 10:37:25;;;;;;;7.03;4.63;;;28.00;93.60;;;;;;4195085;28;20037;-68
2022/05/04 10:39:31;;;;;;;7.80;5.00;;;28.00;93.60;;;;;;4194862;28;20063;-71
2022/05/04 10:41:58;;;;;;;5.63;4.40;;;27.90;93.30;;;;;;4195970;28;20144;-69
2022/05/04 10:44:09;;;;;;;5.43;4.30;;;27.80;93.30;;;;;;4195179;28;20044;-69
2022/05/04 10:46:30;;;;;;;7.68;4.90;;;27.70;93.50;;;;;;4190180;28;20052;-69
2022/05/04 10:48:40;;;;;;;6.03;4.60;;;27.70;93.60;;;;;;4194435;28;20044;-69
2022/05/04 10:51:05;;;;;;;8.05;4.90;;;27.80;93.70;;;;;;4196131;28;20040;-69
2022/05/04 10:53:36;;;;;;;8.57;5.25;;;27.80;94.40;;;;;;4173286;28;20053;-70
2022/05/04 10:55:40;;;;;;;7.65;5.43;;;27.80;94.70;;;;;;4193946;28;20057;-69
2022/05/04 10:57:46;;;;;;;7.60;5.05;;;27.80;94.80;;;;;;4195588;28;20055;-71
2022/05/04 11:00:05;;;;;;;8.13;5.68;;;27.80;94.90;;;;;;4194215;28;20037;-68
2022/05/04 11:02:12;;;;;;;9.30;5.70;;;27.80;95.20;;;;;;4184366;28;20503;-70
2022/05/04 11:04:22;;;;;;;12.07;6.05;;;27.80;95.30;;;;;;4194828;28;20380;-69
2022/05/04 11:06:31;;;;;;;;;;;27.70;95.60;;;;;;4193673;28;20067;-69
2022/05/04 11:08:36;;;;;;;7.88;5.72;;;27.70;95.90;;;;;;4193707;28;20015;-68
2022/05/04 11:10:43;;;;;;;9.35;5.97;;;27.70;96.00;;;;;;4192424;28;20533;-69
2022/05/04 11:13:00;;;;;;;8.82;6.20;;;27.70;96.10;;;;;;4196673;28;20053;-69
2022/05/04 11:15:07;;;;;;;8.32;5.13;;;27.70;96.20;;;;;;4178884;28;20041;-70
2022/05/04 11:17:35;;;;;;;8.93;5.28;;;27.60;96.90;;;;;;4188359;28;20158;-69
2022/05/04 11:19:47;;;;;;;9.77;5.93;;;27.50;97.60;;;;;;4196988;28;20049;-70
2022/05/04 11:22:09;;;;;;;9.57;5.70;;;27.40;97.60;;;;;;4200777;28;20048;-69
2022/05/04 11:24:33;;;;;;;9.07;7.30;;;27.40;97.70;;;;;;4191411;28;20056;-70
2022/05/04 11:26:41;;;;;;;10.63;7.93;;;27.30;97.90;;;;;;4187042;28;20052;-73
2022/05/04 11:28:46;;;;;;;10.27;7.50;;;27.20;98.30;;;;;;4193987;28;20404;-73
2022/05/04 11:31:03;;;;;;;9.40;6.95;;;27.30;98.10;;;;;;4174173;28;20068;-72
2022/05/04 11:33:13;;;;;;;11.00;7.00;;;27.30;97.80;;;;;;4194613;28;20554;-74
2022/05/04 11:35:18;;;;;;;11.70;7.00;;;27.30;97.60;;;;;;4194464;28;20064;-73
2022/05/04 11:37:33;;;;;;;10.40;6.60;;;27.30;97.60;;;;;;4176905;28;20063;-76